sensor_id;sensor_type;location;lat;lon;timestamp;temperature;humidity
5476;DHT22;2760;50.000;9.194;2023-02-17T00:00:17;8.30;99.90
5476;DHT22;2760;50.000;9.194;2023-02-17T00:02:44;7.30;99.90
5476;DHT22;2760;50.000;9.194;2023-02-17T00:05:12;7.20;99.90
5476;DHT22;2760;50.000;9.194;2023-02-17T00:07:40;7.70;99.90
5476;DHT22;2760;50.000;9.194;2023-02-17T00:10:07;9.20;99.90
5476;DHT22;2760;50.000;9.194;2023-02-17T00:12:35;7.30;99.90
5476;DHT22;2760;50.000;9.194;2023-02-17T00:15:05;7.30;99.90
5476;DHT22;2760;50.000;9.194;2023-02-17T00:17:32;7.30;99.90
5476;DHT22;2760;50.000;9.194;2023-02-17T00:20:00;9.20;99.90
5476;DHT22;2760;50.000;9.194;2023-02-17T00:22:28;7.40;99.90
5476;DHT22;2760;50.000;9.194;2023-02-17T00:24:55;7.40;99.90
5476;DHT22;2760;50.000;9.194;2023-02-17T00:27:22;7.40;99.90
5476;DHT22;2760;50.000;9.194;2023-02-17T00:29:49;7.40;99.90
5476;DHT22;2760;50.000;9.194;2023-02-17T00:32:16;7.30;99.90
5476;DHT22;2760;50.000;9.194;2023-02-17T00:34:45;8.90;99.90
5476;DHT22;2760;50.000;9.194;2023-02-17T00:37:12;7.40;99.90
5476;DHT22;2760;50.000;9.194;2023-02-17T00:39:41;8.90;99.90
5476;DHT22;2760;50.000;9.194;2023-02-17T00:42:09;7.40;99.90
5476;DHT22;2760;50.000;9.194;2023-02-17T00:44:36;6.20;99.90
5476;DHT22;2760;50.000;9.194;2023-02-17T00:47:04;8.70;99.90
5476;DHT22;2760;50.000;9.194;2023-02-17T00:49:31;7.50;99.90
5476;DHT22;2760;50.000;9.194;2023-02-17T00:51:58;9.00;99.90
5476;DHT22;2760;50.000;9.194;2023-02-17T00:54:26;8.90;99.90
5476;DHT22;2760;50.000;9.194;2023-02-17T00:56:55;8.70;99.90
5476;DHT22;2760;50.000;9.194;2023-02-17T00:59:22;9.60;99.90
5476;DHT22;2760;50.000;9.194;2023-02-17T01:01:49;8.90;99.90
5476;DHT22;2760;50.000;9.194;2023-02-17T01:04:16;9.60;99.90
5476;DHT22;2760;50.000;9.194;2023-02-17T01:06:45;7.50;99.90
5476;DHT22;2760;50.000;9.194;2023-02-17T01:09:16;7.50;99.90
5476;DHT22;2760;50.000;9.194;2023-02-17T01:11:47;6.50;99.90
5476;DHT22;2760;50.000;9.194;2023-02-17T01:14:16;7.50;99.90
5476;DHT22;2760;50.000;9.194;2023-02-17T01:16:45;9.00;99.90
5476;DHT22;2760;50.000;9.194;2023-02-17T01:19:14;7.60;99.90
5476;DHT22;2760;50.000;9.194;2023-02-17T01:21:45;7.50;99.90
5476;DHT22;2760;50.000;9.194;2023-02-17T01:24:13;9.10;99.90
5476;DHT22;2760;50.000;9.194;2023-02-17T01:26:41;7.40;99.90
5476;DHT22;2760;50.000;9.194;2023-02-17T01:29:09;7.50;99.90
5476;DHT22;2760;50.000;9.194;2023-02-17T01:31:38;7.50;99.90
5476;DHT22;2760;50.000;9.194;2023-02-17T01:34:10;7.40;99.90
5476;DHT22;2760;50.000;9.194;2023-02-17T01:36:37;7.40;99.90
5476;DHT22;2760;50.000;9.194;2023-02-17T01:39:04;8.10;99.90
5476;DHT22;2760;50.000;9.194;2023-02-17T01:41:32;7.40;99.90
5476;DHT22;2760;50.000;9.194;2023-02-17T01:44:11;9.10;99.90
5476;DHT22;2760;50.000;9.194;2023-02-17T01:46:41;7.40;99.90
5476;DHT22;2760;50.000;9.194;2023-02-17T01:49:16;7.40;99.90
5476;DHT22;2760;50.000;9.194;2023-02-17T01:51:48;7.50;99.90
5476;DHT22;2760;50.000;9.194;2023-02-17T01:54:19;8.60;99.90
5476;DHT22;2760;50.000;9.194;2023-02-17T01:56:48;7.50;99.90
5476;DHT22;2760;50.000;9.194;2023-02-17T01:59:18;7.60;99.90
5476;DHT22;2760;50.000;9.194;2023-02-17T02:01:51;9.20;99.90
5476;DHT22;2760;50.000;9.194;2023-02-17T02:04:20;9.00;99.90
5476;DHT22;2760;50.000;9.194;2023-02-17T02:06:48;7.50;99.90
5476;DHT22;2760;50.000;9.194;2023-02-17T02:09:18;7.40;99.90
5476;DHT22;2760;50.000;9.194;2023-02-17T02:11:47;7.40;99.90
5476;DHT22;2760;50.000;9.194;2023-02-17T02:14:15;7.40;99.90
5476;DHT22;2760;50.000;9.194;2023-02-17T02:16:49;7.40;99.90
5476;DHT22;2760;50.000;9.194;2023-02-17T02:22:43;7.40;99.90
5476;DHT22;2760;50.000;9.194;2023-02-17T02:25:26;7.50;99.90
5476;DHT22;2760;50.000;9.194;2023-02-17T02:28:04;7.50;99.90
5476;DHT22;2760;50.000;9.194;2023-02-17T02:30:58;7.40;99.90
5476;DHT22;2760;50.000;9.194;2023-02-17T02:33:37;7.40;99.90
5476;DHT22;2760;50.000;9.194;2023-02-17T02:36:10;7.50;99.90
5476;DHT22;2760;50.000;9.194;2023-02-17T02:38:40;7.30;99.90
5476;DHT22;2760;50.000;9.194;2023-02-17T02:41:12;8.40;99.90
5476;DHT22;2760;50.000;9.194;2023-02-17T02:43:40;7.40;99.90
5476;DHT22;2760;50.000;9.194;2023-02-17T02:46:08;8.30;99.90
5476;DHT22;2760;50.000;9.194;2023-02-17T02:48:39;7.30;99.90
5476;DHT22;2760;50.000;9.194;2023-02-17T02:51:17;7.40;99.90
5476;DHT22;2760;50.000;9.194;2023-02-17T02:56:48;7.30;99.90
5476;DHT22;2760;50.000;9.194;2023-02-17T02:59:26;8.60;99.90
5476;DHT22;2760;50.000;9.194;2023-02-17T03:02:03;7.40;99.90
5476;DHT22;2760;50.000;9.194;2023-02-17T03:04:36;7.30;99.90
5476;DHT22;2760;50.000;9.194;2023-02-17T03:07:08;7.10;99.90
5476;DHT22;2760;50.000;9.194;2023-02-17T03:09:37;7.40;99.90
5476;DHT22;2760;50.000;9.194;2023-02-17T03:12:05;8.50;99.90
5476;DHT22;2760;50.000;9.194;2023-02-17T03:14:35;7.40;99.90
5476;DHT22;2760;50.000;9.194;2023-02-17T03:17:04;9.30;99.90
5476;DHT22;2760;50.000;9.194;2023-02-17T03:19:32;9.40;99.90
5476;DHT22;2760;50.000;9.194;2023-02-17T03:22:04;7.40;99.90
5476;DHT22;2760;50.000;9.194;2023-02-17T03:24:34;7.50;99.90
5476;DHT22;2760;50.000;9.194;2023-02-17T03:27:13;7.50;99.90
5476;DHT22;2760;50.000;9.194;2023-02-17T03:29:40;9.30;99.90
5476;DHT22;2760;50.000;9.194;2023-02-17T03:32:07;9.40;99.90
5476;DHT22;2760;50.000;9.194;2023-02-17T03:34:36;6.90;99.90
5476;DHT22;2760;50.000;9.194;2023-02-17T03:37:03;7.80;99.90
5476;DHT22;2760;50.000;9.194;2023-02-17T03:39:30;9.50;99.90
5476;DHT22;2760;50.000;9.194;2023-02-17T03:41:57;8.00;99.90
5476;DHT22;2760;50.000;9.194;2023-02-17T03:44:24;8.10;99.90
5476;DHT22;2760;50.000;9.194;2023-02-17T03:46:51;8.80;99.90
5476;DHT22;2760;50.000;9.194;2023-02-17T03:49:18;9.40;99.90
5476;DHT22;2760;50.000;9.194;2023-02-17T03:51:46;6.80;99.90
5476;DHT22;2760;50.000;9.194;2023-02-17T03:54:14;8.40;99.90
5476;DHT22;2760;50.000;9.194;2023-02-17T03:56:41;9.80;99.90
5476;DHT22;2760;50.000;9.194;2023-02-17T03:59:08;10.50;99.90
5476;DHT22;2760;50.000;9.194;2023-02-17T04:01:35;9.50;99.90
5476;DHT22;2760;50.000;9.194;2023-02-17T04:04:02;10.60;99.90
5476;DHT22;2760;50.000;9.194;2023-02-17T04:06:29;9.60;99.90
5476;DHT22;2760;50.000;9.194;2023-02-17T04:08:57;8.80;99.90
5476;DHT22;2760;50.000;9.194;2023-02-17T04:11:24;10.80;99.90
5476;DHT22;2760;50.000;9.194;2023-02-17T04:13:52;8.80;99.90
5476;DHT22;2760;50.000;9.194;2023-02-17T04:16:18;10.60;99.90
5476;DHT22;2760;50.000;9.194;2023-02-17T04:18:47;9.00;99.90
5476;DHT22;2760;50.000;9.194;2023-02-17T04:21:15;8.90;99.90
5476;DHT22;2760;50.000;9.194;2023-02-17T04:23:42;9.20;99.90
5476;DHT22;2760;50.000;9.194;2023-02-17T04:26:11;9.00;99.90
5476;DHT22;2760;50.000;9.194;2023-02-17T04:28:39;9.00;99.90
5476;DHT22;2760;50.000;9.194;2023-02-17T04:31:07;10.50;99.90
5476;DHT22;2760;50.000;9.194;2023-02-17T04:33:37;8.90;99.90
5476;DHT22;2760;50.000;9.194;2023-02-17T04:36:04;10.60;99.90
5476;DHT22;2760;50.000;9.194;2023-02-17T04:38:32;9.00;99.90
5476;DHT22;2760;50.000;9.194;2023-02-17T04:40:59;10.30;99.90
5476;DHT22;2760;50.000;9.194;2023-02-17T04:43:28;9.20;99.90
5476;DHT22;2760;50.000;9.194;2023-02-17T04:45:55;10.00;99.90
5476;DHT22;2760;50.000;9.194;2023-02-17T04:48:23;9.20;99.90
5476;DHT22;2760;50.000;9.194;2023-02-17T04:50:50;9.20;99.90
5476;DHT22;2760;50.000;9.194;2023-02-17T04:53:18;10.20;99.90
5476;DHT22;2760;50.000;9.194;2023-02-17T04:55:48;11.00;99.90
5476;DHT22;2760;50.000;9.194;2023-02-17T04:58:16;11.50;99.90
5476;DHT22;2760;50.000;9.194;2023-02-17T05:00:46;9.30;99.90
5476;DHT22;2760;50.000;9.194;2023-02-17T05:03:13;9.20;99.90
5476;DHT22;2760;50.000;9.194;2023-02-17T05:05:40;11.10;99.90
5476;DHT22;2760;50.000;9.194;2023-02-17T05:08:07;10.50;99.90
5476;DHT22;2760;50.000;9.194;2023-02-17T05:10:34;7.90;99.90
5476;DHT22;2760;50.000;9.194;2023-02-17T05:13:01;10.10;99.90
5476;DHT22;2760;50.000;9.194;2023-02-17T05:15:28;9.30;99.90
5476;DHT22;2760;50.000;9.194;2023-02-17T05:17:56;9.40;99.90
5476;DHT22;2760;50.000;9.194;2023-02-17T05:20:23;9.50;99.90
5476;DHT22;2760;50.000;9.194;2023-02-17T05:22:51;10.90;99.90
5476;DHT22;2760;50.000;9.194;2023-02-17T05:25:21;9.70;99.90
5476;DHT22;2760;50.000;9.194;2023-02-17T05:27:48;9.70;99.90
5476;DHT22;2760;50.000;9.194;2023-02-17T05:30:15;10.00;99.90
5476;DHT22;2760;50.000;9.194;2023-02-17T05:32:44;9.90;99.90
5476;DHT22;2760;50.000;9.194;2023-02-17T05:35:12;11.50;99.90
5476;DHT22;2760;50.000;9.194;2023-02-17T05:37:42;9.90;99.90
5476;DHT22;2760;50.000;9.194;2023-02-17T05:40:10;9.20;99.90
5476;DHT22;2760;50.000;9.194;2023-02-17T05:42:37;9.90;99.90
5476;DHT22;2760;50.000;9.194;2023-02-17T05:45:05;10.90;99.90
5476;DHT22;2760;50.000;9.194;2023-02-17T05:47:32;9.70;99.90
5476;DHT22;2760;50.000;9.194;2023-02-17T05:50:00;12.20;99.90
5476;DHT22;2760;50.000;9.194;2023-02-17T05:52:28;10.10;99.90
5476;DHT22;2760;50.000;9.194;2023-02-17T05:54:55;11.70;99.90
5476;DHT22;2760;50.000;9.194;2023-02-17T05:57:22;10.00;99.90
5476;DHT22;2760;50.000;9.194;2023-02-17T05:59:49;11.70;99.90
5476;DHT22;2760;50.000;9.194;2023-02-17T06:02:16;11.00;99.90
5476;DHT22;2760;50.000;9.194;2023-02-17T06:04:43;10.20;99.90
5476;DHT22;2760;50.000;9.194;2023-02-17T06:07:11;11.40;99.90
5476;DHT22;2760;50.000;9.194;2023-02-17T06:09:39;10.20;99.90
5476;DHT22;2760;50.000;9.194;2023-02-17T06:12:07;12.00;99.90
5476;DHT22;2760;50.000;9.194;2023-02-17T06:14:34;11.80;99.90
5476;DHT22;2760;50.000;9.194;2023-02-17T06:17:01;12.40;99.90
5476;DHT22;2760;50.000;9.194;2023-02-17T06:19:29;10.90;99.90
5476;DHT22;2760;50.000;9.194;2023-02-17T06:21:56;10.40;99.90
5476;DHT22;2760;50.000;9.194;2023-02-17T06:24:23;11.30;99.90
5476;DHT22;2760;50.000;9.194;2023-02-17T06:26:52;10.30;99.90
5476;DHT22;2760;50.000;9.194;2023-02-17T06:29:19;10.20;99.90
5476;DHT22;2760;50.000;9.194;2023-02-17T06:31:46;11.60;99.90
5476;DHT22;2760;50.000;9.194;2023-02-17T06:34:13;11.50;99.90
5476;DHT22;2760;50.000;9.194;2023-02-17T06:36:40;10.20;99.90
5476;DHT22;2760;50.000;9.194;2023-02-17T06:39:07;11.50;99.90
5476;DHT22;2760;50.000;9.194;2023-02-17T06:41:34;10.80;99.90
5476;DHT22;2760;50.000;9.194;2023-02-17T06:44:03;10.80;99.90
5476;DHT22;2760;50.000;9.194;2023-02-17T06:46:30;10.20;99.90
5476;DHT22;2760;50.000;9.194;2023-02-17T06:48:57;12.50;99.90
5476;DHT22;2760;50.000;9.194;2023-02-17T06:51:25;11.60;99.90
5476;DHT22;2760;50.000;9.194;2023-02-17T06:53:52;11.90;99.90
5476;DHT22;2760;50.000;9.194;2023-02-17T06:56:19;12.40;99.90
5476;DHT22;2760;50.000;9.194;2023-02-17T06:58:46;10.40;99.90
5476;DHT22;2760;50.000;9.194;2023-02-17T07:01:18;10.30;99.90
5476;DHT22;2760;50.000;9.194;2023-02-17T07:03:46;11.00;99.90
5476;DHT22;2760;50.000;9.194;2023-02-17T07:06:13;11.40;99.90
5476;DHT22;2760;50.000;9.194;2023-02-17T07:08:40;11.40;99.90
5476;DHT22;2760;50.000;9.194;2023-02-17T07:11:09;12.50;99.90
5476;DHT22;2760;50.000;9.194;2023-02-17T07:13:36;10.40;99.90
5476;DHT22;2760;50.000;9.194;2023-02-17T07:16:04;10.20;99.90
5476;DHT22;2760;50.000;9.194;2023-02-17T07:18:33;10.30;99.90
5476;DHT22;2760;50.000;9.194;2023-02-17T07:21:01;10.70;99.90
5476;DHT22;2760;50.000;9.194;2023-02-17T07:23:28;10.50;99.90
5476;DHT22;2760;50.000;9.194;2023-02-17T07:25:54;10.40;99.90
5476;DHT22;2760;50.000;9.194;2023-02-17T07:28:21;11.90;99.90
5476;DHT22;2760;50.000;9.194;2023-02-17T07:30:48;11.40;99.90
5476;DHT22;2760;50.000;9.194;2023-02-17T07:33:16;11.40;99.90
5476;DHT22;2760;50.000;9.194;2023-02-17T07:35:44;10.40;99.90
5476;DHT22;2760;50.000;9.194;2023-02-17T07:38:11;10.20;99.90
5476;DHT22;2760;50.000;9.194;2023-02-17T07:40:39;12.10;99.90
5476;DHT22;2760;50.000;9.194;2023-02-17T07:43:06;10.40;99.90
5476;DHT22;2760;50.000;9.194;2023-02-17T07:45:33;12.40;99.90
5476;DHT22;2760;50.000;9.194;2023-02-17T07:48:00;12.80;99.90
5476;DHT22;2760;50.000;9.194;2023-02-17T07:50:27;10.40;99.90
5476;DHT22;2760;50.000;9.194;2023-02-17T07:52:56;11.30;99.90
5476;DHT22;2760;50.000;9.194;2023-02-17T07:55:24;11.70;99.90
5476;DHT22;2760;50.000;9.194;2023-02-17T07:57:51;11.30;99.90
5476;DHT22;2760;50.000;9.194;2023-02-17T08:00:20;10.70;99.90
5476;DHT22;2760;50.000;9.194;2023-02-17T08:02:47;10.30;99.90
5476;DHT22;2760;50.000;9.194;2023-02-17T08:05:14;10.30;99.90
5476;DHT22;2760;50.000;9.194;2023-02-17T08:07:41;10.30;99.90
5476;DHT22;2760;50.000;9.194;2023-02-17T08:10:11;12.30;99.90
5476;DHT22;2760;50.000;9.194;2023-02-17T08:12:56;10.40;99.90
5476;DHT22;2760;50.000;9.194;2023-02-17T08:15:41;12.70;99.90
5476;DHT22;2760;50.000;9.194;2023-02-17T08:18:08;11.50;99.90
5476;DHT22;2760;50.000;9.194;2023-02-17T08:20:35;10.30;99.90
5476;DHT22;2760;50.000;9.194;2023-02-17T08:23:02;10.40;99.90
5476;DHT22;2760;50.000;9.194;2023-02-17T08:25:32;10.40;99.90
5476;DHT22;2760;50.000;9.194;2023-02-17T08:27:59;12.20;99.90
5476;DHT22;2760;50.000;9.194;2023-02-17T08:30:26;10.70;99.90
5476;DHT22;2760;50.000;9.194;2023-02-17T08:32:53;10.40;99.90
5476;DHT22;2760;50.000;9.194;2023-02-17T08:35:20;11.60;99.90
5476;DHT22;2760;50.000;9.194;2023-02-17T08:37:48;10.30;99.90
5476;DHT22;2760;50.000;9.194;2023-02-17T08:40:15;10.40;99.90
5476;DHT22;2760;50.000;9.194;2023-02-17T08:42:44;11.90;99.90
5476;DHT22;2760;50.000;9.194;2023-02-17T08:45:13;10.50;99.90
5476;DHT22;2760;50.000;9.194;2023-02-17T08:47:41;10.50;99.90
5476;DHT22;2760;50.000;9.194;2023-02-17T08:50:12;12.80;99.90
5476;DHT22;2760;50.000;9.194;2023-02-17T08:52:41;10.60;99.90
5476;DHT22;2760;50.000;9.194;2023-02-17T08:55:08;10.40;99.90
5476;DHT22;2760;50.000;9.194;2023-02-17T08:57:35;11.90;99.90
5476;DHT22;2760;50.000;9.194;2023-02-17T09:00:07;10.60;99.90
5476;DHT22;2760;50.000;9.194;2023-02-17T09:02:34;10.70;99.90
5476;DHT22;2760;50.000;9.194;2023-02-17T09:05:03;12.20;99.90
5476;DHT22;2760;50.000;9.194;2023-02-17T09:07:30;10.70;99.90
5476;DHT22;2760;50.000;9.194;2023-02-17T09:09:57;12.10;99.90
5476;DHT22;2760;50.000;9.194;2023-02-17T09:12:24;12.40;99.90
5476;DHT22;2760;50.000;9.194;2023-02-17T09:14:51;11.60;99.90
5476;DHT22;2760;50.000;9.194;2023-02-17T09:17:19;12.90;99.90
5476;DHT22;2760;50.000;9.194;2023-02-17T09:19:46;12.20;99.90
5476;DHT22;2760;50.000;9.194;2023-02-17T09:22:15;12.70;99.90
5476;DHT22;2760;50.000;9.194;2023-02-17T09:24:42;12.60;99.90
5476;DHT22;2760;50.000;9.194;2023-02-17T09:27:09;10.80;99.90
5476;DHT22;2760;50.000;9.194;2023-02-17T09:29:36;11.70;99.90
5476;DHT22;2760;50.000;9.194;2023-02-17T09:32:07;12.10;99.90
5476;DHT22;2760;50.000;9.194;2023-02-17T09:34:37;13.20;99.90
5476;DHT22;2760;50.000;9.194;2023-02-17T09:37:09;10.80;99.90
5476;DHT22;2760;50.000;9.194;2023-02-17T09:39:36;11.10;99.90
5476;DHT22;2760;50.000;9.194;2023-02-17T09:42:03;12.70;99.90
5476;DHT22;2760;50.000;9.194;2023-02-17T09:44:35;10.90;99.90
5476;DHT22;2760;50.000;9.194;2023-02-17T09:47:10;10.70;99.90
5476;DHT22;2760;50.000;9.194;2023-02-17T09:49:47;10.00;99.90
5476;DHT22;2760;50.000;9.194;2023-02-17T09:52:19;10.90;99.90
5476;DHT22;2760;50.000;9.194;2023-02-17T09:54:56;10.90;99.90
5476;DHT22;2760;50.000;9.194;2023-02-17T09:57:28;9.00;99.90
5476;DHT22;2760;50.000;9.194;2023-02-17T09:59:59;10.90;99.90
5476;DHT22;2760;50.000;9.194;2023-02-17T10:02:41;10.80;99.90
5476;DHT22;2760;50.000;9.194;2023-02-17T10:05:15;11.50;99.90
5476;DHT22;2760;50.000;9.194;2023-02-17T10:07:46;10.90;99.90
5476;DHT22;2760;50.000;9.194;2023-02-17T10:10:18;12.00;99.90
5476;DHT22;2760;50.000;9.194;2023-02-17T10:12:49;10.70;99.90
5476;DHT22;2760;50.000;9.194;2023-02-17T10:15:22;10.70;99.90
5476;DHT22;2760;50.000;9.194;2023-02-17T10:17:54;10.70;99.90
5476;DHT22;2760;50.000;9.194;2023-02-17T10:20:30;11.90;99.90
5476;DHT22;2760;50.000;9.194;2023-02-17T10:23:03;10.80;99.90
5476;DHT22;2760;50.000;9.194;2023-02-17T10:25:48;10.80;99.90
5476;DHT22;2760;50.000;9.194;2023-02-17T10:28:21;10.70;99.90
5476;DHT22;2760;50.000;9.194;2023-02-17T10:30:58;12.60;99.90
5476;DHT22;2760;50.000;9.194;2023-02-17T10:33:30;12.50;99.90
5476;DHT22;2760;50.000;9.194;2023-02-17T10:36:10;12.90;99.90
5476;DHT22;2760;50.000;9.194;2023-02-17T10:38:47;13.00;99.90
5476;DHT22;2760;50.000;9.194;2023-02-17T10:41:20;12.10;99.90
5476;DHT22;2760;50.000;9.194;2023-02-17T10:43:49;10.90;99.90
5476;DHT22;2760;50.000;9.194;2023-02-17T10:46:19;12.50;99.90
5476;DHT22;2760;50.000;9.194;2023-02-17T10:48:52;11.00;99.90
5476;DHT22;2760;50.000;9.194;2023-02-17T10:51:23;12.60;99.90
5476;DHT22;2760;50.000;9.194;2023-02-17T10:53:54;12.60;99.90
5476;DHT22;2760;50.000;9.194;2023-02-17T10:56:25;12.10;99.90
5476;DHT22;2760;50.000;9.194;2023-02-17T10:58:54;12.10;99.90
5476;DHT22;2760;50.000;9.194;2023-02-17T11:01:24;12.60;99.90
5476;DHT22;2760;50.000;9.194;2023-02-17T11:04:02;11.50;99.90
5476;DHT22;2760;50.000;9.194;2023-02-17T11:06:31;11.10;99.90
5476;DHT22;2760;50.000;9.194;2023-02-17T11:09:14;11.70;99.90
5476;DHT22;2760;50.000;9.194;2023-02-17T11:11:50;10.90;99.90
5476;DHT22;2760;50.000;9.194;2023-02-17T11:14:23;11.20;99.90
5476;DHT22;2760;50.000;9.194;2023-02-17T11:16:55;12.50;99.90
5476;DHT22;2760;50.000;9.194;2023-02-17T11:19:25;11.90;99.90
5476;DHT22;2760;50.000;9.194;2023-02-17T11:21:55;12.50;99.90
5476;DHT22;2760;50.000;9.194;2023-02-17T11:24:23;12.10;99.90
5476;DHT22;2760;50.000;9.194;2023-02-17T11:26:55;11.30;99.90
5476;DHT22;2760;50.000;9.194;2023-02-17T11:29:24;12.70;99.90
5476;DHT22;2760;50.000;9.194;2023-02-17T11:31:56;13.10;99.90
5476;DHT22;2760;50.000;9.194;2023-02-17T11:34:25;12.90;99.90
5476;DHT22;2760;50.000;9.194;2023-02-17T11:36:59;12.70;99.90
5476;DHT22;2760;50.000;9.194;2023-02-17T11:39:27;12.80;99.90
5476;DHT22;2760;50.000;9.194;2023-02-17T11:41:54;13.00;99.90
5476;DHT22;2760;50.000;9.194;2023-02-17T11:44:24;12.10;99.90
5476;DHT22;2760;50.000;9.194;2023-02-17T11:46:58;11.40;99.90
5476;DHT22;2760;50.000;9.194;2023-02-17T11:52:42;11.50;99.90
5476;DHT22;2760;50.000;9.194;2023-02-17T11:55:18;10.30;99.90
5476;DHT22;2760;50.000;9.194;2023-02-17T11:57:56;13.40;99.90
5476;DHT22;2760;50.000;9.194;2023-02-17T12:00:38;12.30;99.90
5476;DHT22;2760;50.000;9.194;2023-02-17T12:03:38;13.80;99.90
5476;DHT22;2760;50.000;9.194;2023-02-17T12:06:13;11.60;99.90
5476;DHT22;2760;50.000;9.194;2023-02-17T12:08:54;13.80;99.90
5476;DHT22;2760;50.000;9.194;2023-02-17T12:11:30;10.70;99.90
5476;DHT22;2760;50.000;9.194;2023-02-17T12:14:12;13.00;99.90
5476;DHT22;2760;50.000;9.194;2023-02-17T12:16:48;12.60;99.90
5476;DHT22;2760;50.000;9.194;2023-02-17T12:19:28;12.50;99.90
5476;DHT22;2760;50.000;9.194;2023-02-17T12:22:05;11.80;99.90
5476;DHT22;2760;50.000;9.194;2023-02-17T12:24:51;13.60;99.90
5476;DHT22;2760;50.000;9.194;2023-02-17T12:27:29;13.40;99.90
5476;DHT22;2760;50.000;9.194;2023-02-17T12:30:12;12.20;99.90
5476;DHT22;2760;50.000;9.194;2023-02-17T12:32:52;11.90;99.90
5476;DHT22;2760;50.000;9.194;2023-02-17T12:35:24;13.00;99.90
5476;DHT22;2760;50.000;9.194;2023-02-17T12:37:59;11.90;99.90
5476;DHT22;2760;50.000;9.194;2023-02-17T12:40:35;11.90;99.90
5476;DHT22;2760;50.000;9.194;2023-02-17T12:43:12;12.00;99.90
5476;DHT22;2760;50.000;9.194;2023-02-17T12:45:45;12.00;99.90
5476;DHT22;2760;50.000;9.194;2023-02-17T12:48:17;11.40;99.90
5476;DHT22;2760;50.000;9.194;2023-02-17T12:50:53;12.00;99.90
5476;DHT22;2760;50.000;9.194;2023-02-17T12:53:38;13.50;99.90
5476;DHT22;2760;50.000;9.194;2023-02-17T12:56:25;12.70;99.90
5476;DHT22;2760;50.000;9.194;2023-02-17T12:58:54;14.20;99.90
5476;DHT22;2760;50.000;9.194;2023-02-17T13:01:25;12.80;99.90
5476;DHT22;2760;50.000;9.194;2023-02-17T13:03:58;11.00;99.90
5476;DHT22;2760;50.000;9.194;2023-02-17T13:06:31;12.30;99.90
5476;DHT22;2760;50.000;9.194;2023-02-17T13:09:07;14.00;99.90
5476;DHT22;2760;50.000;9.194;2023-02-17T13:11:42;14.00;99.90
5476;DHT22;2760;50.000;9.194;2023-02-17T13:14:10;12.30;99.90
5476;DHT22;2760;50.000;9.194;2023-02-17T13:16:42;12.30;99.90
5476;DHT22;2760;50.000;9.194;2023-02-17T13:19:15;14.30;99.90
5476;DHT22;2760;50.000;9.194;2023-02-17T13:21:54;13.70;99.90
5476;DHT22;2760;50.000;9.194;2023-02-17T13:24:31;12.30;99.90
5476;DHT22;2760;50.000;9.194;2023-02-17T13:27:10;14.70;99.90
5476;DHT22;2760;50.000;9.194;2023-02-17T13:29:38;14.20;99.90
5476;DHT22;2760;50.000;9.194;2023-02-17T13:32:07;13.50;99.90
5476;DHT22;2760;50.000;9.194;2023-02-17T13:34:38;12.60;99.90
5476;DHT22;2760;50.000;9.194;2023-02-17T13:37:24;14.10;99.90
5476;DHT22;2760;50.000;9.194;2023-02-17T13:39:53;13.70;99.90
5476;DHT22;2760;50.000;9.194;2023-02-17T13:42:36;14.00;99.90
5476;DHT22;2760;50.000;9.194;2023-02-17T13:45:20;12.40;99.90
5476;DHT22;2760;50.000;9.194;2023-02-17T13:47:52;12.40;99.90
5476;DHT22;2760;50.000;9.194;2023-02-17T13:50:28;12.60;99.90
5476;DHT22;2760;50.000;9.194;2023-02-17T13:52:55;12.50;99.90
5476;DHT22;2760;50.000;9.194;2023-02-17T13:55:23;12.50;99.90
5476;DHT22;2760;50.000;9.194;2023-02-17T13:57:54;12.60;99.90
5476;DHT22;2760;50.000;9.194;2023-02-17T14:00:25;12.50;99.90
5476;DHT22;2760;50.000;9.194;2023-02-17T14:02:54;12.50;99.90
5476;DHT22;2760;50.000;9.194;2023-02-17T14:05:25;14.00;99.90
5476;DHT22;2760;50.000;9.194;2023-02-17T14:07:57;14.60;99.90
5476;DHT22;2760;50.000;9.194;2023-02-17T14:10:26;14.40;99.90
5476;DHT22;2760;50.000;9.194;2023-02-17T14:12:55;12.80;99.90
5476;DHT22;2760;50.000;9.194;2023-02-17T14:15:25;12.40;99.90
5476;DHT22;2760;50.000;9.194;2023-02-17T14:17:53;12.60;99.90
5476;DHT22;2760;50.000;9.194;2023-02-17T14:20:26;13.90;99.90
5476;DHT22;2760;50.000;9.194;2023-02-17T14:23:04;12.50;99.90
5476;DHT22;2760;50.000;9.194;2023-02-17T14:25:35;14.50;99.90
5476;DHT22;2760;50.000;9.194;2023-02-17T14:28:04;14.20;99.90
5476;DHT22;2760;50.000;9.194;2023-02-17T14:30:43;12.50;99.90
5476;DHT22;2760;50.000;9.194;2023-02-17T14:33:19;13.70;99.90
5476;DHT22;2760;50.000;9.194;2023-02-17T14:35:52;12.40;99.90
5476;DHT22;2760;50.000;9.194;2023-02-17T14:38:23;12.30;99.90
5476;DHT22;2760;50.000;9.194;2023-02-17T14:40:52;12.30;99.90
5476;DHT22;2760;50.000;9.194;2023-02-17T14:43:22;13.80;99.90
5476;DHT22;2760;50.000;9.194;2023-02-17T14:45:49;13.50;99.90
5476;DHT22;2760;50.000;9.194;2023-02-17T14:48:17;12.30;99.90
5476;DHT22;2760;50.000;9.194;2023-02-17T14:50:44;12.50;99.90
5476;DHT22;2760;50.000;9.194;2023-02-17T14:53:15;13.40;99.90
5476;DHT22;2760;50.000;9.194;2023-02-17T14:55:46;13.60;99.90
5476;DHT22;2760;50.000;9.194;2023-02-17T14:58:18;14.40;99.90
5476;DHT22;2760;50.000;9.194;2023-02-17T15:00:48;14.60;99.90
5476;DHT22;2760;50.000;9.194;2023-02-17T15:03:16;12.40;99.90
5476;DHT22;2760;50.000;9.194;2023-02-17T15:05:43;14.70;99.90
5476;DHT22;2760;50.000;9.194;2023-02-17T15:08:13;14.60;99.90
5476;DHT22;2760;50.000;9.194;2023-02-17T15:10:42;14.20;99.90
5476;DHT22;2760;50.000;9.194;2023-02-17T15:13:12;12.50;99.90
5476;DHT22;2760;50.000;9.194;2023-02-17T15:15:39;14.80;99.90
5476;DHT22;2760;50.000;9.194;2023-02-17T15:18:10;14.70;99.90
5476;DHT22;2760;50.000;9.194;2023-02-17T15:20:40;14.60;99.90
5476;DHT22;2760;50.000;9.194;2023-02-17T15:23:12;12.60;99.90
5476;DHT22;2760;50.000;9.194;2023-02-17T15:25:39;12.60;99.90
5476;DHT22;2760;50.000;9.194;2023-02-17T15:28:07;14.40;99.90
5476;DHT22;2760;50.000;9.194;2023-02-17T15:30:34;13.80;99.90
5476;DHT22;2760;50.000;9.194;2023-02-17T15:33:01;12.40;99.90
5476;DHT22;2760;50.000;9.194;2023-02-17T15:35:30;12.50;99.90
5476;DHT22;2760;50.000;9.194;2023-02-17T15:37:57;14.40;99.90
5476;DHT22;2760;50.000;9.194;2023-02-17T15:40:28;12.50;99.90
5476;DHT22;2760;50.000;9.194;2023-02-17T15:42:56;12.50;99.90
5476;DHT22;2760;50.000;9.194;2023-02-17T15:45:25;12.40;99.90
5476;DHT22;2760;50.000;9.194;2023-02-17T15:47:59;13.70;99.90
5476;DHT22;2760;50.000;9.194;2023-02-17T15:50:27;12.50;99.90
5476;DHT22;2760;50.000;9.194;2023-02-17T15:52:56;12.60;99.90
5476;DHT22;2760;50.000;9.194;2023-02-17T15:55:23;12.40;99.90
5476;DHT22;2760;50.000;9.194;2023-02-17T15:57:51;14.50;99.90
5476;DHT22;2760;50.000;9.194;2023-02-17T16:00:22;13.30;99.90
5476;DHT22;2760;50.000;9.194;2023-02-17T16:02:50;14.20;99.90
5476;DHT22;2760;50.000;9.194;2023-02-17T16:05:18;12.60;99.90
5476;DHT22;2760;50.000;9.194;2023-02-17T16:07:48;12.50;99.90
5476;DHT22;2760;50.000;9.194;2023-02-17T16:10:18;12.50;99.90
5476;DHT22;2760;50.000;9.194;2023-02-17T16:12:47;12.40;99.90
5476;DHT22;2760;50.000;9.194;2023-02-17T16:15:17;13.50;99.90
5476;DHT22;2760;50.000;9.194;2023-02-17T16:17:45;13.20;99.90
5476;DHT22;2760;50.000;9.194;2023-02-17T16:20:14;12.50;99.90
5476;DHT22;2760;50.000;9.194;2023-02-17T16:22:43;12.30;99.90
5476;DHT22;2760;50.000;9.194;2023-02-17T16:25:10;13.50;99.90
5476;DHT22;2760;50.000;9.194;2023-02-17T16:27:40;12.80;99.90
5476;DHT22;2760;50.000;9.194;2023-02-17T16:30:19;12.40;99.90
5476;DHT22;2760;50.000;9.194;2023-02-17T16:32:48;12.60;99.90
5476;DHT22;2760;50.000;9.194;2023-02-17T16:35:18;12.60;99.90